Time;durP1;ratioP1;P1;durP2;ratioP2;P2;SDS_P1;SDS_P2;PMS_P1;PMS_P2;Temp;Humidity;BMP_temperature;BMP_pressure;BME280_temperature;BME280_humidity;BME280_pressure;Samples;Min_cycle;Max_cycle;Signal;HPM_P1;HPM_P2
2023/05/12 00:07:17;;;;;;;22.67;17.52;;;;;;;24.71;35.36;101673.06;20963237;28;20094;-68
2023/05/12 00:17:22;;;;;;;22.70;15.98;;;;;;;24.93;35.17;101708.19;20955159;28;20029;-68
2023/05/12 00:27:23;;;;;;;23.50;16.50;;;;;;;24.90;35.36;101712.41;20957623;28;20037;-68
2023/05/12 00:37:24;;;;;;;21.95;15.27;;;;;;;24.96;35.24;101727.19;20942107;28;20040;-69
2023/05/12 00:47:29;;;;;;;22.52;15.40;;;;;;;24.92;35.57;101726.94;20956098;28;20163;-67
2023/05/12 00:57:33;;;;;;;21.20;15.75;;;;;;;24.74;35.36;101694.88;20990437;28;20045;-68
2023/05/12 01:07:35;;;;;;;20.92;15.40;;;;;;;24.98;35.65;101745.38;20952298;28;20045;-69
2023/05/12 01:17:39;;;;;;;15.75;12.27;;;;;;;24.92;35.99;101766.13;20955967;28;20491;-69
2023/05/12 01:27:42;;;;;;;16.13;10.73;;;;;;;24.85;36.51;101765.63;20945524;28;20397;-69
2023/05/12 01:37:44;;;;;;;15.07;11.00;;;;;;;24.92;36.48;101798.88;20953605;28;20487;-68
2023/05/12 01:47:48;;;;;;;23.60;14.13;;;;;;;24.96;36.19;101819.59;20964160;28;20040;-68
2023/05/12 01:57:52;;;;;;;17.88;13.15;;;;;;;24.99;36.18;101825.47;20950285;28;20517;-68
2023/05/12 02:07:56;;;;;;;14.77;12.40;;;;;;;24.98;36.25;101811.75;20922946;28;20041;-69
2023/05/12 02:18:02;;;;;;;16.88;12.60;;;;;;;24.94;36.21;101803.09;20957313;28;20442;-67
2023/05/12 02:28:03;;;;;;;27.67;12.75;;;;;;;24.98;37.05;101808.97;20964481;28;20396;-70
2023/05/12 02:38:07;;;;;;;22.15;10.93;;;;;;;25.03;37.13;101806.97;20950115;28;20102;-72
2023/05/12 02:48:09;;;;;;;16.88;9.70;;;;;;;24.99;37.03;101813.44;21045692;28;20036;-70
2023/05/12 02:58:10;;;;;;;13.88;10.25;;;;;;;25.01;37.02;101792.41;20995121;28;20048;-70
2023/05/12 03:08:14;;;;;;;13.95;10.10;;;;;;;24.87;37.04;101779.31;20990098;28;20037;-70
2023/05/12 03:18:19;;;;;;;13.73;9.10;;;;;;;25.08;36.92;101808.94;20913305;28;20040;-69
2023/05/12 03:28:21;;;;;;;16.90;9.45;;;;;;;25.00;37.09;101812.28;20953232;28;20044;-69
2023/05/12 03:38:23;;;;;;;19.90;9.00;;;;;;;25.06;37.54;101825.13;20950582;28;20037;-70
2023/05/12 03:48:25;;;;;;;12.18;9.30;;;;;;;25.14;37.52;101837.75;20980636;28;20036;-70
2023/05/12 03:58:26;;;;;;;15.93;9.20;;;;;;;25.05;37.76;101815.06;21039575;28;20047;-69
2023/05/12 04:08:28;;;;;;;16.67;8.68;;;;;;;25.10;38.04;101826.28;20993244;28;20086;-70
2023/05/12 04:18:34;;;;;;;11.25;8.93;;;;;;;25.11;38.05;101830.75;20991737;28;20377;-69
2023/05/12 04:28:36;;;;;;;11.18;8.20;;;;;;;24.96;38.14;101805.59;20946233;28;20037;-69
2023/05/12 04:38:37;;;;;;;11.38;7.68;;;;;;;25.11;37.91;101830.75;21077351;28;20048;-69
2023/05/12 04:48:42;;;;;;;11.60;8.57;;;;;;;25.13;38.69;101811.69;20957334;28;20037;-70
2023/05/12 04:58:46;;;;;;;10.23;7.47;;;;;;;25.15;38.24;101815.03;20923335;28;20495;-69
2023/05/12 05:08:47;;;;;;;10.85;8.45;;;;;;;25.12;38.52;101812.84;20922503;28;20041;-69
2023/05/12 05:18:48;;;;;;;11.55;8.15;;;;;;;25.14;38.34;101796.56;20921958;28;20111;-69
2023/05/12 05:28:53;;;;;;;10.40;7.43;;;;;;;25.15;38.69;101792.63;20961022;28;20322;-69
2023/05/12 05:38:55;;;;;;;8.40;6.63;;;;;;;25.17;39.19;101775.56;21081371;28;20040;-70
2023/05/12 05:48:56;;;;;;;11.30;7.63;;;;;;;25.18;38.94;101786.47;21086307;28;20048;-69
2023/05/12 05:59:01;;;;;;;9.95;7.88;;;;;;;25.18;38.89;101780.84;21085484;28;20040;-70
2023/05/12 06:09:03;;;;;;;10.50;7.57;;;;;;;25.14;39.02;101778.91;21075623;28;20036;-70
2023/05/12 06:19:04;;;;;;;9.52;7.35;;;;;;;25.05;39.39;101753.44;21013382;28;20036;-70
2023/05/12 06:29:07;;;;;;;9.55;7.65;;;;;;;24.97;39.30;101734.47;21029436;28;20118;-70
2023/05/12 06:39:08;;;;;;;9.02;7.07;;;;;;;25.19;39.65;101760.13;21022741;28;20075;-70
2023/05/12 06:49:09;;;;;;;9.05;7.75;;;;;;;25.18;39.32;101764.06;21047298;28;20106;-70
2023/05/12 06:59:11;;;;;;;11.27;7.35;;;;;;;25.17;39.63;101762.38;21032562;28;20041;-70
2023/05/12 07:09:13;;;;;;;8.15;7.13;;;;;;;25.04;39.51;101737.78;20996525;28;20098;-69
2023/05/12 07:19:16;;;;;;;8.98;6.95;;;;;;;25.16;39.46;101735.50;21031703;28;20036;-70
2023/05/12 07:29:21;;;;;;;9.23;6.90;;;;;;;25.16;39.80;101748.69;21040036;28;20040;-70
2023/05/12 07:39:31;;;;;;;8.23;6.38;;;;;;;25.17;39.82;101767.97;20994110;28;20452;-70
2023/05/12 07:49:32;;;;;;;8.30;7.32;;;;;;;25.10;39.81;101747.84;21062856;28;20043;-70
2023/05/12 07:59:33;;;;;;;9.45;7.13;;;;;;;25.15;39.70;101747.81;20990516;28;20052;-70
2023/05/12 08:09:35;;;;;;;8.90;6.68;;;;;;;24.96;39.50;101730.81;20999716;28;20049;-70
2023/05/12 08:19:36;;;;;;;10.23;6.93;;;;;;;25.14;40.18;101757.34;21034945;28;20052;-70
2023/05/12 08:29:37;;;;;;;9.15;7.25;;;;;;;25.07;40.29;101762.41;21012151;28;20032;-70
2023/05/12 08:39:39;;;;;;;8.15;6.63;;;;;;;25.11;40.29;101763.56;20992278;28;20380;-70
2023/05/12 08:49:48;;;;;;;8.75;6.43;;;;;;;25.12;40.43;101770.00;20991278;28;20048;-70
2023/05/12 08:59:53;;;;;;;8.23;6.32;;;;;;;24.93;40.09;101730.59;20990880;28;20040;-70
2023/05/12 09:09:59;;;;;;;10.57;6.30;;;;;;;25.05;40.21;101764.66;20991183;28;20107;-70
2023/05/12 09:20:07;;;;;;;9.02;6.97;;;;;;;25.08;40.02;101766.91;20921897;28;20599;-70
2023/05/12 09:30:08;;;;;;;8.73;6.20;;;;;;;25.04;40.08;101747.03;20996828;28;20564;-70
2023/05/12 09:40:12;;;;;;;10.10;7.07;;;;;;;24.90;40.63;101739.56;21003302;28;20025;-70
2023/05/12 09:50:21;;;;;;;8.15;6.22;;;;;;;25.09;39.99;101777.00;20949394;28;20570;-71
2023/05/12 10:00:26;;;;;;;8.38;6.55;;;;;;;24.82;40.39;101750.22;20950549;28;20557;-70
2023/05/12 10:10:27;;;;;;;8.95;6.72;;;;;;;24.95;40.32;101781.53;20978813;28;20116;-70
2023/05/12 10:20:33;;;;;;;8.13;6.53;;;;;;;24.84;40.46;101787.19;21003690;28;20507;-70
2023/05/12 10:30:37;;;;;;;12.07;6.22;;;;;;;24.92;40.34;101816.53;21015392;28;20074;-70
2023/05/12 10:40:57;;;;;;;8.23;6.40;;;;;;;25.02;41.25;101832.47;20998454;28;20078;-70
2023/05/12 10:51:13;;;;;;;10.40;6.78;;;;;;;24.72;41.52;101795.06;20993536;28;20037;-72
2023/05/12 11:01:23;;;;;;;14.15;7.22;;;;;;;25.03;42.04;101856.53;20997407;28;20105;-71
2023/05/12 11:11:27;;;;;;;13.57;7.40;;;;;;;24.97;41.97;101838.06;21077553;28;20430;-72
2023/05/12 11:21:31;;;;;;;13.25;7.10;;;;;;;24.83;41.72;101824.72;21078596;28;20544;-72
2023/05/12 11:31:32;;;;;;;13.48;7.57;;;;;;;24.35;42.31;101748.72;21077658;28;20036;-72
2023/05/12 11:41:34;;;;;;;15.07;6.75;;;;;;;25.10;42.66;101868.28;21077514;28;20036;-73
2023/05/12 11:51:40;;;;;;;10.73;6.68;;;;;;;25.09;42.95;101856.25;21077256;28;20047;-73
2023/05/12 12:01:47;;;;;;;9.50;7.63;;;;;;;25.13;42.65;101866.88;21076881;28;20074;-72
2023/05/12 12:11:49;;;;;;;12.60;7.07;;;;;;;25.10;42.82;101871.06;21076460;28;20509;-72
2023/05/12 12:21:57;;;;;;;11.60;7.25;;;;;;;25.09;42.74;101875.00;21076112;28;20292;-72
2023/05/12 12:31:58;;;;;;;13.18;8.13;;;;;;;25.04;43.12;101875.84;21075249;28;20032;-72
2023/05/12 12:41:59;;;;;;;11.55;8.02;;;;;;;25.00;42.89;101880.34;21078330;28;20036;-72
2023/05/12 12:52:01;;;;;;;10.88;6.75;;;;;;;25.00;42.24;101863.53;21091273;28;20024;-73
2023/05/12 13:02:03;;;;;;;10.65;7.57;;;;;;;25.05;42.15;101876.66;21090679;28;20058;-73
2023/05/12 13:12:05;;;;;;;10.68;7.55;;;;;;;25.14;41.74;101886.19;21089383;28;20092;-73
2023/05/12 13:22:12;;;;;;;12.68;8.15;;;;;;;25.17;41.85;101888.41;21089571;28;20392;-74
2023/05/12 13:32:15;;;;;;;11.23;7.70;;;;;;;25.21;41.89;101903.53;21088014;28;20085;-73
2023/05/12 13:42:16;;;;;;;9.95;7.70;;;;;;;25.23;41.54;101894.84;21087416;28;20070;-74
2023/05/12 13:52:18;;;;;;;11.82;8.98;;;;;;;24.66;41.73;101801.81;21085838;28;20531;-72
2023/05/12 14:02:22;;;;;;;11.10;8.68;;;;;;;25.23;41.44;101890.06;21085143;28;20052;-73
2023/05/12 14:12:24;;;;;;;13.52;8.80;;;;;;;25.25;41.21;101887.81;21084869;28;20061;-72
2023/05/12 14:22:25;;;;;;;12.27;8.07;;;;;;;25.25;40.88;101893.44;21083971;28;20425;-71
2023/05/12 14:32:27;;;;;;;15.57;9.93;;;;;;;25.13;41.36;101864.06;21082701;28;20058;-73
2023/05/12 14:42:29;;;;;;;11.15;8.50;;;;;;;25.19;40.94;101871.31;21082464;28;20039;-72
2023/05/12 14:52:36;;;;;;;11.50;8.75;;;;;;;25.26;40.76;101883.91;21081792;28;20491;-73
2023/05/12 15:02:38;;;;;;;;;;;;;;;25.37;40.69;101897.84;21081036;28;20040;-73
2023/05/12 15:12:40;;;;;;;16.95;12.07;;;;;;;25.43;41.17;101877.06;21080460;28;20283;-72
2023/05/12 15:22:41;;;;;;;11.90;9.27;;;;;;;25.42;40.66;101858.59;21078560;28;20410;-72
2023/05/12 15:32:43;;;;;;;11.30;9.60;;;;;;;25.44;40.71;101856.34;21078178;28;20048;-73
2023/05/12 15:42:47;;;;;;;15.75;11.25;;;;;;;25.46;40.90;101854.06;21077621;28;20052;-73
2023/05/12 15:52:51;;;;;;;17.17;11.02;;;;;;;25.47;40.96;101833.31;21077010;28;20036;-72
2023/05/12 16:02:53;;;;;;;13.93;11.10;;;;;;;25.51;40.91;101829.66;21076248;28;20044;-72
2023/05/12 16:12:54;;;;;;;14.63;11.48;;;;;;;25.53;41.01;101816.19;21076142;28;20479;-72
2023/05/12 16:22:56;;;;;;;16.23;10.73;;;;;;;25.25;40.66;101747.75;21089829;28;20043;-71
2023/05/12 16:32:57;;;;;;;15.20;12.10;;;;;;;25.57;40.77;101786.47;21092412;28;20040;-72
2023/05/12 16:42:58;;;;;;;16.83;13.30;;;;;;;25.62;40.50;101771.56;21091648;28;20101;-72
2023/05/12 16:53:00;;;;;;;15.80;11.90;;;;;;;25.64;40.29;101755.28;21091306;28;20070;-72
2023/05/12 17:03:02;;;;;;;17.23;12.98;;;;;;;25.69;39.20;101738.41;21090587;28;20479;-73
2023/05/12 17:13:06;;;;;;;15.02;11.90;;;;;;;25.68;39.65;101739.56;21088905;28;20392;-71
2023/05/12 17:23:08;;;;;;;13.70;10.95;;;;;;;25.72;38.86;101717.38;21089093;28;20044;-72
2023/05/12 17:33:09;;;;;;;15.15;10.63;;;;;;;25.67;38.71;101703.44;21086777;28;20043;-72
2023/05/12 17:43:14;;;;;;;15.10;10.73;;;;;;;25.75;38.26;101706.44;21087059;28;20479;-72
2023/05/12 17:53:16;;;;;;;14.23;10.05;;;;;;;25.71;38.19;101685.72;21086107;28;20040;-72
2023/05/12 18:03:21;;;;;;;12.68;10.30;;;;;;;25.78;38.60;101676.97;21085635;28;20032;-72
2023/05/12 18:13:23;;;;;;;13.52;9.98;;;;;;;25.66;38.02;101645.66;21084193;28;20036;-72
2023/05/12 18:23:24;;;;;;;13.32;10.30;;;;;;;25.80;38.46;101664.34;21083748;28;20040;-72
2023/05/12 18:33:25;;;;;;;13.70;10.65;;;;;;;25.72;38.45;101645.34;21082495;28;20035;-72
2023/05/12 18:43:27;;;;;;;15.40;11.27;;;;;;;25.81;38.58;101656.78;21081507;28;20044;-71
2023/05/12 18:53:28;;;;;;;15.50;11.20;;;;;;;25.15;38.74;101534.13;21081931;28;20036;-73
2023/05/12 19:03:33;;;;;;;13.25;11.80;;;;;;;25.67;38.89;101614.56;21080488;28;20032;-72
2023/05/12 19:13:39;;;;;;;13.65;10.65;;;;;;;25.66;38.53;101607.28;21079831;28;20499;-73
2023/05/12 19:23:47;;;;;;;15.65;11.68;;;;;;;25.68;38.53;101585.38;21079755;28;20048;-74
2023/05/12 19:33:48;;;;;;;13.57;10.95;;;;;;;25.82;38.68;101600.38;21079135;28;20416;-72
2023/05/12 19:43:49;;;;;;;15.93;10.57;;;;;;;25.83;38.54;101593.63;21078217;28;20039;-72
2023/05/12 19:53:54;;;;;;;12.50;10.02;;;;;;;25.83;38.47;101579.63;21076728;28;20036;-74
2023/05/12 20:03:55;;;;;;;13.57;10.43;;;;;;;25.73;38.20;101548.06;21076997;28;20036;-73
2023/05/12 20:13:57;;;;;;;12.55;9.85;;;;;;;25.83;38.44;101568.41;21076413;28;20044;-72
2023/05/12 20:23:58;;;;;;;12.13;9.25;;;;;;;25.84;38.37;101553.28;21076343;28;20086;-72
2023/05/12 20:34:00;;;;;;;13.88;10.43;;;;;;;25.85;38.00;101543.72;21076253;28;20098;-72
2023/05/12 20:44:02;;;;;;;12.68;9.60;;;;;;;25.69;38.19;101511.38;21056635;28;20047;-69
2023/05/12 20:54:04;;;;;;;14.27;9.90;;;;;;;25.88;37.95;101547.06;20990851;28;20048;-70
2023/05/12 21:04:06;;;;;;;21.02;10.02;;;;;;;25.89;38.12;101531.88;20980486;28;20568;-70
2023/05/12 21:14:07;;;;;;;12.07;9.60;;;;;;;25.87;38.00;101522.97;20922965;28;20041;-69
2023/05/12 21:24:09;;;;;;;11.95;8.65;;;;;;;25.91;37.91;101524.03;20922368;28;20143;-69
2023/05/12 21:34:10;;;;;;;12.45;8.27;;;;;;;25.92;37.99;101531.31;20922186;28;20041;-69
2023/05/12 21:44:15;;;;;;;11.75;8.30;;;;;;;25.91;37.70;101529.63;20920998;28;20087;-69
2023/05/12 21:54:16;;;;;;;10.80;8.10;;;;;;;25.89;37.86;101537.50;20920519;28;20045;-68
2023/05/12 22:04:18;;;;;;;10.95;7.80;;;;;;;25.91;37.62;101524.03;20919486;28;20040;-70
2023/05/12 22:14:19;;;;;;;10.43;7.80;;;;;;;25.80;37.52;101501.75;20917884;28;20071;-70
2023/05/12 22:24:23;;;;;;;9.57;7.03;;;;;;;25.89;37.28;101521.53;20917606;28;20110;-69
2023/05/12 22:34:25;;;;;;;10.00;7.13;;;;;;;25.63;37.22;101478.13;20917185;28;20530;-69
2023/05/12 22:44:26;;;;;;;7.75;6.95;;;;;;;25.90;37.37;101506.38;20915985;28;20110;-69
2023/05/12 22:54:27;;;;;;;9.90;7.07;;;;;;;25.91;37.30;101521.22;20915156;28;20067;-69
2023/05/12 23:04:29;;;;;;;10.13;7.03;;;;;;;25.78;36.78;101500.34;20914094;28;20049;-67
2023/05/12 23:14:31;;;;;;;8.73;6.85;;;;;;;25.91;36.96;101526.84;20913478;28;20445;-69
2023/05/12 23:24:32;;;;;;;10.52;7.15;;;;;;;25.64;36.81;101497.44;20911282;28;20389;-69
2023/05/12 23:34:35;;;;;;;8.98;7.25;;;;;;;25.92;36.85;101542.50;20912127;28;20037;-69
2023/05/12 23:44:36;;;;;;;8.70;6.57;;;;;;;25.92;37.00;101548.94;20911333;28;20118;-69
2023/05/12 23:54:40;;;;;;;10.18;7.05;;;;;;;25.81;36.53;101531.44;20910865;28;20045;-69
